Terminal Aerodrome Forecast
Issued by NWS Bismarck, ND

Home | Current Version | Previous Version | Text Only | Print | Product List | Glossary On
Versions: 1 2 3 4 5 6 7 8 9 10 11 12 13 14 15 16 17 18 19 20 21 22 23 24 25 26 27 28
331
FTUS43 KBIS 291737
TAFBIS
TAF
KBIS 291737Z 2918/3018 30014G20KT P6SM SCT040
     FM292300 26014G20KT P6SM SCT050
     FM300100 20004KT P6SM SCT060
     FM300600 14004KT P6SM FEW150
     FM301500 15012G18KT P6SM SCT050 BKN150=

USA.gov is the U.S. government's official web portal to all federal, state and local government web resources and services.